Time;durP1;ratioP1;P1;durP2;ratioP2;P2;SDS_P1;SDS_P2;PMS_P1;PMS_P2;Temp;Humidity;BMP_temperature;BMP_pressure;BME280_temperature;BME280_humidity;BME280_pressure;Samples;Min_cycle;Max_cycle;Signal;HPM_P1;HPM_P2
2021/01/14 00:01:13;;;;;;;4.10;3.67;;;;;;;8.32;nan;100182.81;4957329;28;97824;-71
2021/01/14 00:03:41;;;;;;;4.70;4.30;;;;;;;8.33;nan;100183.72;4959183;28;99746;-71
2021/01/14 00:06:08;;;;;;;4.32;3.90;;;;;;;8.34;nan;100182.94;4976168;28;99328;-71
2021/01/14 00:08:36;;;;;;;6.00;4.05;;;;;;;8.35;nan;100192.56;4976498;28;97996;-71
2021/01/14 00:11:04;;;;;;;3.92;3.70;;;;;;;8.32;nan;100180.22;4959398;28;97130;-71
2021/01/14 00:13:31;;;;;;;8.43;5.43;;;;;;;8.31;nan;100195.84;4976147;28;97878;-72
2021/01/14 00:16:00;;;;;;;4.72;4.30;;;;;;;8.27;nan;100186.94;4957370;28;98045;-72
2021/01/14 00:18:28;;;;;;;4.17;3.87;;;;;;;8.30;nan;100178.34;4975352;28;97210;-73
2021/01/14 00:20:56;;;;;;;4.30;3.97;;;;;;;8.32;nan;100192.41;4976554;28;97560;-72
2021/01/14 00:23:23;;;;;;;6.53;4.28;;;;;;;8.28;nan;100186.13;4975128;28;98054;-72
2021/01/14 00:25:50;;;;;;;4.68;4.32;;;;;;;8.32;nan;100179.34;4957806;28;100520;-72
2021/01/14 00:28:18;;;;;;;5.10;4.60;;;;;;;8.35;nan;100166.41;4958331;28;97387;-72
2021/01/14 00:30:45;;;;;;;5.10;4.75;;;;;;;8.35;nan;100187.34;4976146;28;97510;-72
2021/01/14 00:33:13;;;;;;;4.10;3.70;;;;;;;8.36;nan;100187.41;4974851;28;98065;-73
2021/01/14 00:35:41;;;;;;;4.60;3.95;;;;;;;8.40;nan;100176.28;4975882;28;98284;-72
2021/01/14 00:38:08;;;;;;;4.32;4.00;;;;;;;8.40;nan;100192.00;4956939;28;97466;-71
2021/01/14 00:40:35;;;;;;;4.63;4.30;;;;;;;8.36;nan;100170.84;4976314;28;96860;-72
2021/01/14 00:43:04;;;;;;;4.80;4.40;;;;;;;8.30;nan;100187.09;4973742;28;98979;-72
2021/01/14 00:45:33;;;;;;;5.40;4.90;;;;;;;8.31;nan;100181.03;4958072;28;98237;-72
2021/01/14 00:48:01;;;;;;;4.63;4.28;;;;;;;8.29;nan;100195.75;4975703;28;97959;-72
2021/01/14 00:50:30;;;;;;;4.18;3.80;;;;;;;8.29;nan;100181.78;4974829;28;97524;-72
2021/01/14 00:52:57;;;;;;;4.30;3.95;;;;;;;8.33;nan;100183.72;4975443;28;97759;-72
2021/01/14 00:55:25;;;;;;;4.38;4.07;;;;;;;8.33;nan;100184.63;4974923;28;99153;-71
2021/01/14 00:57:53;;;;;;;5.30;4.90;;;;;;;8.33;nan;100173.25;4975452;28;97073;-72
2021/01/14 01:00:22;;;;;;;4.85;4.45;;;;;;;8.34;nan;100170.72;4960705;28;97899;-72
2021/01/14 01:02:51;;;;;;;3.88;3.67;;;;;;;8.32;nan;100176.72;4975533;28;98496;-72
2021/01/14 01:05:19;;;;;;;4.13;3.93;;;;;;;8.21;nan;100190.09;4976337;28;98277;-71
2021/01/14 01:07:52;;;;;;;4.80;4.33;;;;;;;8.12;nan;100197.44;4973965;28;97160;-71
2021/01/14 01:10:20;;;;;;;5.07;4.65;;;;;;;8.03;nan;100219.59;4956047;28;98073;-71
2021/01/14 01:12:50;;;;;;;4.70;4.30;;;;;;;8.09;nan;100199.91;4974642;28;97050;-72
2021/01/14 01:15:18;;;;;;;5.00;4.70;;;;;;;8.05;nan;100211.03;4975129;28;97961;-72
2021/01/14 01:17:46;;;;;;;4.95;4.43;;;;;;;7.80;nan;100215.75;4974254;28;97068;-71
2021/01/14 01:20:14;;;;;;;4.90;4.60;;;;;;;7.76;nan;100223.31;4975132;28;97645;-72
2021/01/14 01:22:42;;;;;;;5.25;4.75;;;;;;;7.63;nan;100219.13;4957296;28;98326;-72
2021/01/14 01:25:11;;;;;;;5.50;4.60;;;;;;;7.58;nan;100227.53;4956882;28;100148;-72
2021/01/14 01:27:39;;;;;;;6.70;5.30;;;;;;;7.57;nan;100244.91;4973050;28;97752;-72
2021/01/14 01:30:25;;;;;;;5.68;5.18;;;;;;;7.61;nan;100244.28;4975884;28;97647;-72
2021/01/14 01:32:53;;;;;;;4.90;4.40;;;;;;;7.61;nan;100238.19;4957019;28;99069;-72
2021/01/14 01:35:20;;;;;;;5.00;4.65;;;;;;;7.55;nan;100240.44;4973541;28;98981;-72
2021/01/14 01:38:06;;;;;;;5.38;4.70;;;;;;;7.55;nan;100254.41;4974457;28;96794;-73
2021/01/14 01:40:34;;;;;;;5.33;4.93;;;;;;;7.53;nan;100289.09;4958005;28;97466;-73
2021/01/14 01:43:02;;;;;;;6.47;5.10;;;;;;;7.50;nan;100271.53;4975370;28;97751;-70
2021/01/14 01:45:29;;;;;;;5.15;4.75;;;;;;;7.53;nan;100262.97;4956538;28;97710;-73
2021/01/14 01:47:57;;;;;;;5.53;4.53;;;;;;;7.48;nan;100273.16;4974363;28;97506;-73
2021/01/14 01:50:26;;;;;;;5.75;5.00;;;;;;;7.42;nan;100288.50;4956471;28;97806;-70
2021/01/14 01:52:54;;;;;;;5.50;5.00;;;;;;;7.31;nan;100291.28;4974687;28;97724;-70
2021/01/14 01:55:22;;;;;;;6.93;5.80;;;;;;;7.16;nan;100287.00;4973254;28;97880;-71
2021/01/14 01:57:51;;;;;;;5.73;5.23;;;;;;;7.21;nan;100299.44;4956703;28;97888;-72
2021/01/14 02:00:19;;;;;;;5.78;5.25;;;;;;;7.22;nan;100304.72;4975081;28;97833;-72
2021/01/14 02:02:46;;;;;;;5.43;5.05;;;;;;;7.26;nan;100317.16;4973307;28;97963;-71
2021/01/14 02:05:14;;;;;;;5.72;5.22;;;;;;;7.31;nan;100325.25;4973491;28;99024;-70
2021/01/14 02:08:02;;;;;;;5.82;5.32;;;;;;;7.35;nan;100328.16;4957297;28;98033;-70
2021/01/14 02:10:31;;;;;;;6.22;5.82;;;;;;;7.35;nan;100337.69;4973689;28;97177;-71
2021/01/14 02:13:11;;;;;;;5.05;4.70;;;;;;;7.30;nan;100339.16;4976071;28;99119;-70
2021/01/14 02:15:40;;;;;;;5.18;4.78;;;;;;;7.24;nan;100357.97;4960482;28;99000;-71
2021/01/14 02:18:08;;;;;;;6.07;5.50;;;;;;;7.27;nan;100352.00;4976191;28;97582;-71
2021/01/14 02:20:37;;;;;;;6.35;5.25;;;;;;;7.25;nan;100357.16;4962668;28;98036;-71
2021/01/14 02:23:21;;;;;;;6.57;6.03;;;;;;;7.33;nan;100371.56;4978409;28;100263;-72
2021/01/14 02:26:03;;;;;;;5.95;5.45;;;;;;;7.32;nan;100374.97;4958587;28;97977;-72
2021/01/14 02:28:31;;;;;;;5.77;5.17;;;;;;;7.38;nan;100377.03;4977396;28;97664;-72
2021/01/14 02:30:59;;;;;;;5.30;4.90;;;;;;;7.41;nan;100379.88;4977752;28;97606;-71
2021/01/14 02:33:27;;;;;;;5.40;5.10;;;;;;;7.31;nan;100386.25;4958901;28;97818;-72
2021/01/14 02:35:55;;;;;;;6.00;5.50;;;;;;;7.17;nan;100405.44;4977201;28;99383;-74
2021/01/14 02:38:22;;;;;;;6.28;5.78;;;;;;;7.10;nan;100409.38;4960050;28;97818;-73
2021/01/14 02:40:50;;;;;;;5.40;4.95;;;;;;;7.13;nan;100412.16;4960288;28;97203;-72
2021/01/14 02:43:18;;;;;;;5.90;5.40;;;;;;;7.26;nan;100420.75;4959338;28;98474;-71
2021/01/14 02:45:46;;;;;;;5.60;5.20;;;;;;;7.23;nan;100426.66;4977833;28;98738;-71
2021/01/14 02:48:18;;;;;;;7.40;6.03;;;;;;;7.26;nan;100421.66;4959741;28;97608;-72
2021/01/14 02:50:48;;;;;;;6.40;5.78;;;;;;;7.33;nan;100442.09;4949694;28;97667;-72
2021/01/14 02:53:15;;;;;;;5.95;5.43;;;;;;;7.29;nan;100453.16;4958614;28;99632;-71
2021/01/14 02:55:43;;;;;;;5.63;5.13;;;;;;;7.36;nan;100450.13;4977711;28;98121;-72
2021/01/14 02:58:11;;;;;;;6.20;5.70;;;;;;;7.41;nan;100455.63;4960291;28;97308;-71
2021/01/14 03:00:58;;;;;;;6.15;5.68;;;;;;;7.50;nan;100464.91;4974831;28;98767;-72
2021/01/14 03:03:25;;;;;;;5.80;5.40;;;;;;;7.45;nan;100463.72;4977728;28;97689;-72
2021/01/14 03:05:52;;;;;;;6.27;5.67;;;;;;;7.62;nan;100470.88;4976406;28;98361;-72
2021/01/14 03:08:20;;;;;;;4.90;4.57;;;;;;;7.67;nan;100478.97;4958581;28;97683;-72
2021/01/14 03:10:48;;;;;;;6.03;5.55;;;;;;;7.69;nan;100485.19;4959067;28;98054;-72
2021/01/14 03:13:15;;;;;;;5.53;5.13;;;;;;;7.65;nan;100480.59;4977033;28;99246;-72
2021/01/14 03:15:45;;;;;;;6.25;5.82;;;;;;;7.65;nan;100484.13;4959574;28;98917;-72
2021/01/14 03:18:13;;;;;;;6.85;5.70;;;;;;;7.72;nan;100472.34;4975844;28;96733;-72
2021/01/14 03:20:41;;;;;;;5.88;5.38;;;;;;;7.77;nan;100482.22;4959716;28;97924;-73
2021/01/14 03:23:09;;;;;;;5.30;5.00;;;;;;;7.81;nan;100493.78;4976990;28;98056;-72
2021/01/14 03:25:37;;;;;;;5.85;5.38;;;;;;;7.81;nan;100499.91;4957601;28;99127;-72
2021/01/14 03:28:05;;;;;;;6.07;5.57;;;;;;;7.84;nan;100496.56;4974602;28;97144;-72
2021/01/14 03:30:32;;;;;;;5.88;5.47;;;;;;;7.84;nan;100510.56;4978475;28;96884;-71
2021/01/14 03:33:00;;;;;;;5.55;5.25;;;;;;;7.89;nan;100514.34;4977240;28;98031;-72
2021/01/14 03:35:47;;;;;;;6.28;5.72;;;;;;;7.93;nan;100518.94;4976591;28;97896;-72
2021/01/14 03:38:15;;;;;;;5.97;5.47;;;;;;;7.89;nan;100522.19;4975070;28;97290;-70
2021/01/14 03:40:43;;;;;;;6.00;5.50;;;;;;;7.97;nan;100518.28;4975949;28;97928;-72
2021/01/14 03:43:10;;;;;;;6.43;5.93;;;;;;;7.97;nan;100536.59;4976125;28;98905;-71
2021/01/14 03:45:38;;;;;;;7.35;6.75;;;;;;;7.98;nan;100538.41;4977123;28;98575;-72
2021/01/14 03:48:07;;;;;;;6.10;5.60;;;;;;;8.05;nan;100553.66;4974591;28;97415;-72
2021/01/14 03:50:34;;;;;;;7.03;6.43;;;;;;;8.07;nan;100554.66;4975929;28;97129;-72
2021/01/14 03:53:21;;;;;;;7.00;6.40;;;;;;;8.03;nan;100552.66;4976232;28;98328;-72
2021/01/14 03:55:49;;;;;;;6.93;6.33;;;;;;;8.11;nan;100566.19;4958166;28;97810;-72
2021/01/14 03:58:16;;;;;;;6.90;6.40;;;;;;;8.19;nan;100578.91;4958903;28;97613;-72
2021/01/14 04:00:44;;;;;;;7.40;6.80;;;;;;;8.25;nan;100573.16;4976611;28;97187;-72
2021/01/14 04:03:11;;;;;;;6.87;6.27;;;;;;;8.31;nan;100590.94;4975870;28;98647;-72
2021/01/14 04:05:39;;;;;;;5.15;4.95;;;;;;;8.32;nan;100598.88;4957674;28;98862;-73
2021/01/14 04:08:06;;;;;;;5.35;4.82;;;;;;;8.20;nan;100606.88;4977363;28;96905;-73
2021/01/14 04:10:35;;;;;;;5.45;5.15;;;;;;;8.02;nan;100605.78;4959961;28;97822;-72
2021/01/14 04:13:02;;;;;;;5.90;5.50;;;;;;;8.06;nan;100609.50;4977566;28;98646;-72
2021/01/14 04:15:30;;;;;;;4.78;4.55;;;;;;;8.00;nan;100623.09;4976284;28;99357;-72
2021/01/14 04:17:57;;;;;;;5.03;4.82;;;;;;;8.01;nan;100622.28;4977376;28;97807;-72
2021/01/14 04:20:25;;;;;;;5.55;5.07;;;;;;;8.02;nan;100623.19;4960486;28;97589;-72
2021/01/14 04:22:52;;;;;;;5.35;5.05;;;;;;;8.01;nan;100637.97;4977341;28;98937;-72
2021/01/14 04:25:28;;;;;;;5.30;5.00;;;;;;;8.00;nan;100636.19;4975561;28;98815;-72
2021/01/14 04:27:57;;;;;;;5.70;5.30;;;;;;;8.06;nan;100652.22;4977037;28;96756;-72
2021/01/14 04:30:25;;;;;;;5.35;5.05;;;;;;;8.12;nan;100647.38;4960132;28;97524;-72
2021/01/14 04:32:58;;;;;;;5.35;5.07;;;;;;;8.11;nan;100663.91;4975648;28;98058;-72
2021/01/14 04:35:29;;;;;;;5.28;4.88;;;;;;;8.12;nan;100665.69;4977135;28;98309;-73
2021/01/14 04:37:56;;;;;;;5.68;5.15;;;;;;;8.09;nan;100665.50;4977484;28;97728;-72
2021/01/14 04:40:24;;;;;;;5.32;5.00;;;;;;;8.18;nan;100687.00;4961134;28;97352;-72
2021/01/14 04:42:52;;;;;;;5.38;5.05;;;;;;;8.22;nan;100690.69;4974625;28;97521;-72
2021/01/14 04:45:22;;;;;;;6.65;6.20;;;;;;;8.35;nan;100688.06;4957876;28;101210;-73
2021/01/14 04:47:50;;;;;;;7.03;6.53;;;;;;;8.44;nan;100701.69;4975684;28;97251;-72
2021/01/14 04:50:18;;;;;;;5.50;5.10;;;;;;;8.41;nan;100711.06;4974750;28;99603;-72
2021/01/14 04:53:05;;;;;;;6.05;5.75;;;;;;;8.50;nan;100706.38;4976093;28;98387;-72
2021/01/14 04:55:42;;;;;;;6.97;6.38;;;;;;;8.52;nan;100716.13;4974751;28;98027;-73
2021/01/14 04:58:15;;;;;;;6.05;5.65;;;;;;;8.58;nan;100720.81;4956383;28;97717;-73
2021/01/14 05:00:48;;;;;;;4.53;4.28;;;;;;;8.60;nan;100727.06;4976259;28;97210;-72
2021/01/14 05:03:27;;;;;;;7.00;6.40;;;;;;;8.71;nan;100728.59;4972741;28;100138;-72
2021/01/14 05:05:55;;;;;;;6.13;5.50;;;;;;;8.70;nan;100739.91;4975689;28;97549;-71
2021/01/14 05:08:28;;;;;;;4.20;4.00;;;;;;;8.65;nan;100741.34;4957522;28;97806;-72
2021/01/14 05:10:56;;;;;;;4.90;4.60;;;;;;;8.61;nan;100753.31;4959665;28;97680;-72
2021/01/14 05:13:24;;;;;;;4.07;3.97;;;;;;;8.61;nan;100753.31;4975478;28;96858;-73
2021/01/14 05:15:52;;;;;;;4.80;4.50;;;;;;;8.62;nan;100769.94;4976712;28;97651;-72
2021/01/14 05:18:19;;;;;;;4.03;3.83;;;;;;;8.66;nan;100762.38;4976560;28;97899;-72
2021/01/14 05:20:47;;;;;;;5.30;4.90;;;;;;;8.77;nan;100770.88;4957734;28;97512;-72
2021/01/14 05:23:19;;;;;;;5.83;5.33;;;;;;;8.83;nan;100777.38;4956218;28;97959;-72
2021/01/14 05:25:52;;;;;;;5.63;5.22;;;;;;;8.87;nan;100778.44;4976617;28;97502;-71
2021/01/14 05:28:21;;;;;;;4.88;4.40;;;;;;;8.74;nan;100786.41;4976717;28;97919;-72
2021/01/14 05:30:49;;;;;;;5.38;4.78;;;;;;;8.88;nan;100801.22;4976135;28;97366;-72
2021/01/14 05:33:20;;;;;;;11.80;7.28;;;;;;;9.01;nan;100801.16;4974843;28;99465;-73
2021/01/14 05:35:49;;;;;;;5.68;5.28;;;;;;;9.05;nan;100811.00;4958415;28;97662;-73
2021/01/14 05:38:27;;;;;;;6.50;5.90;;;;;;;9.13;nan;100820.22;4949313;28;97843;-72
2021/01/14 05:41:19;;;;;;;6.05;5.55;;;;;;;9.23;nan;100819.94;4975018;28;97297;-73
2021/01/14 05:43:51;;;;;;;4.60;4.30;;;;;;;9.32;nan;100828.34;4976379;28;98141;-73
2021/01/14 05:46:20;;;;;;;4.50;4.15;;;;;;;9.41;nan;100827.97;4976075;28;97974;-72
2021/01/14 05:48:50;;;;;;;3.90;3.70;;;;;;;9.39;nan;100845.31;4964566;28;99482;-72
2021/01/14 05:51:20;;;;;;;3.97;3.70;;;;;;;9.28;nan;100841.16;4982320;28;97710;-72
2021/01/14 05:53:59;;;;;;;4.97;4.57;;;;;;;9.40;nan;100847.16;4981265;28;98046;-72
2021/01/14 05:56:34;;;;;;;4.90;4.60;;;;;;;9.46;nan;100853.66;4981250;28;98009;-72
2021/01/14 05:59:04;;;;;;;5.40;4.97;;;;;;;9.52;nan;100864.50;4981354;28;97642;-72
2021/01/14 06:01:32;;;;;;;7.15;5.20;;;;;;;9.59;nan;100871.00;4962612;28;97770;-72
2021/01/14 06:04:17;;;;;;;5.57;5.07;;;;;;;9.67;nan;100874.97;4981811;28;97224;-72
2021/01/14 06:06:49;;;;;;;5.27;4.87;;;;;;;9.72;nan;100884.91;4983076;28;100226;-70
2021/01/14 06:09:18;;;;;;;4.95;4.57;;;;;;;9.75;nan;100890.34;4962269;28;96928;-71
2021/01/14 06:11:46;;;;;;;4.80;4.35;;;;;;;9.78;nan;100890.50;4962565;28;97966;-70
2021/01/14 06:14:35;;;;;;;4.97;4.47;;;;;;;9.83;nan;100894.31;4962137;28;100541;-72
2021/01/14 06:17:03;;;;;;;3.97;3.78;;;;;;;9.75;nan;100903.44;4974431;28;99264;-71
2021/01/14 06:19:32;;;;;;;5.10;4.65;;;;;;;9.66;nan;100900.28;4982639;28;97273;-71
2021/01/14 06:22:01;;;;;;;4.70;4.30;;;;;;;9.68;nan;100906.53;4982758;28;97083;-71
2021/01/14 06:24:30;;;;;;;5.03;4.57;;;;;;;9.67;nan;100907.34;4980350;28;98611;-71
2021/01/14 06:26:59;;;;;;;4.47;4.22;;;;;;;9.69;nan;100915.31;4982886;28;97801;-72
2021/01/14 06:29:28;;;;;;;4.57;4.18;;;;;;;9.63;nan;100912.31;4981931;28;97414;-72
2021/01/14 06:32:06;;;;;;;4.25;3.88;;;;;;;9.65;nan;100919.44;4983316;28;97335;-71
2021/01/14 06:34:35;;;;;;;4.57;4.38;;;;;;;9.62;nan;100927.16;4980831;28;98875;-71
2021/01/14 06:37:10;;;;;;;4.93;4.53;;;;;;;9.60;nan;100941.88;4981313;28;98099;-72
2021/01/14 06:39:40;;;;;;;5.40;5.00;;;;;;;9.58;nan;100946.13;4981919;28;97113;-72
2021/01/14 06:42:20;;;;;;;4.30;4.00;;;;;;;9.59;nan;100958.44;4981258;28;97243;-71
2021/01/14 06:44:58;;;;;;;4.72;4.35;;;;;;;9.49;nan;100953.44;4987547;28;97816;-72
2021/01/14 06:47:44;;;;;;;4.82;4.20;;;;;;;9.56;nan;100960.88;4957910;28;100092;-73
2021/01/14 06:50:24;;;;;;;5.28;4.78;;;;;;;9.52;nan;100968.47;4982475;28;97900;-72
2021/01/14 06:52:53;;;;;;;7.97;5.60;;;;;;;9.60;nan;100970.72;4980069;28;97198;-72
2021/01/14 06:55:22;;;;;;;5.97;5.25;;;;;;;9.67;nan;100975.53;4980161;28;97858;-72
2021/01/14 06:58:04;;;;;;;6.60;5.70;;;;;;;9.74;nan;100988.22;4963507;28;99727;-72
2021/01/14 07:00:34;;;;;;;6.63;5.97;;;;;;;9.77;nan;100988.38;4959887;28;98325;-72
2021/01/14 07:03:16;;;;;;;7.15;5.75;;;;;;;9.76;nan;100999.69;4976839;28;98037;-73
2021/01/14 07:05:59;;;;;;;6.20;5.47;;;;;;;9.80;nan;101012.16;4959018;28;98017;-72
2021/01/14 07:08:58;;;;;;;7.60;5.70;;;;;;;9.85;nan;101015.97;4977143;28;98306;-73
2021/01/14 07:11:33;;;;;;;6.73;5.97;;;;;;;9.93;nan;101017.34;4956592;28;96996;-72
2021/01/14 07:14:16;;;;;;;7.80;6.15;;;;;;;10.01;nan;101025.66;4978660;28;97237;-73
2021/01/14 07:16:47;;;;;;;6.73;5.97;;;;;;;10.00;nan;101030.00;4976191;28;97199;-72
2021/01/14 07:19:14;;;;;;;6.30;5.43;;;;;;;10.07;nan;101047.03;4953612;28;99846;-72
2021/01/14 07:21:44;;;;;;;10.23;5.80;;;;;;;10.06;nan;101053.09;4956696;28;98787;-72
2021/01/14 07:24:18;;;;;;;6.05;5.45;;;;;;;10.07;nan;101058.41;4973448;28;99341;-72
2021/01/14 07:27:08;;;;;;;6.00;5.40;;;;;;;10.13;nan;101066.69;4976724;28;99810;-71
2021/01/14 07:29:56;;;;;;;6.40;5.30;;;;;;;10.16;nan;101079.13;4974217;28;97557;-71
2021/01/14 07:32:51;;;;;;;8.18;5.72;;;;;;;10.18;nan;101083.63;4975517;28;97438;-70
2021/01/14 07:35:39;;;;;;;8.07;5.32;;;;;;;10.24;nan;101095.31;4960571;28;98345;-71
2021/01/14 07:38:10;;;;;;;6.85;5.65;;;;;;;10.28;nan;101097.28;4963345;28;99079;-72
2021/01/14 07:40:38;;;;;;;5.82;5.18;;;;;;;10.34;nan;101106.44;4989279;28;98655;-72
2021/01/14 07:43:07;;;;;;;7.95;5.28;;;;;;;10.38;nan;101112.78;4990439;28;97761;-72
2021/01/14 07:45:39;;;;;;;7.30;5.97;;;;;;;10.40;nan;101122.53;4967885;28;97769;-72
2021/01/14 07:48:17;;;;;;;6.32;5.20;;;;;;;10.44;nan;101121.03;4973773;28;98171;-72
2021/01/14 07:50:55;;;;;;;6.10;5.50;;;;;;;10.51;nan;101126.72;4991371;28;99015;-73
2021/01/14 07:53:24;;;;;;;5.40;4.90;;;;;;;10.39;nan;101132.97;4976062;28;97131;-73
2021/01/14 07:55:52;;;;;;;4.80;4.40;;;;;;;10.26;nan;101138.28;4993928;28;97358;-73
2021/01/14 07:58:22;;;;;;;5.38;4.95;;;;;;;10.18;nan;101135.25;4985901;28;98150;-72
2021/01/14 08:01:05;;;;;;;5.35;4.45;;;;;;;10.14;nan;101144.63;4956304;28;97898;-72
2021/01/14 08:03:34;;;;;;;4.28;3.95;;;;;;;10.08;nan;101145.94;4967011;28;98085;-72
2021/01/14 08:06:25;;;;;;;7.15;4.20;;;;;;;10.02;nan;101164.84;4950151;28;98233;-73
2021/01/14 08:09:01;;;;;;;6.32;5.00;;;;;;;9.99;nan;101169.91;4971019;28;98308;-72
2021/01/14 08:11:30;;;;;;;5.50;5.00;;;;;;;9.92;nan;101179.94;4971772;28;97617;-71
2021/01/14 08:14:17;;;;;;;5.30;5.00;;;;;;;9.87;nan;101182.25;4959436;28;97432;-71
2021/01/14 08:16:46;;;;;;;5.40;4.90;;;;;;;9.88;nan;101191.97;4962606;28;98101;-72
2021/01/14 08:19:16;;;;;;;5.22;4.72;;;;;;;9.86;nan;101196.22;4957028;28;98168;-72
2021/01/14 08:21:48;;;;;;;5.63;5.13;;;;;;;9.88;nan;101204.16;4959311;28;99109;-71
2021/01/14 08:24:44;;;;;;;5.40;4.95;;;;;;;9.81;nan;101209.84;4974746;28;97769;-72
2021/01/14 08:27:22;;;;;;;6.53;4.82;;;;;;;9.76;nan;101217.41;4976229;28;97743;-72
2021/01/14 08:30:13;;;;;;;6.35;5.30;;;;;;;9.67;nan;101221.19;4977444;28;98265;-72
2021/01/14 08:32:45;;;;;;;5.45;4.95;;;;;;;9.57;nan;101231.91;4975562;28;98157;-73
2021/01/14 08:35:26;;;;;;;5.78;5.38;;;;;;;9.54;nan;101230.00;4958612;28;97365;-72
2021/01/14 08:37:55;;;;;;;6.22;5.82;;;;;;;9.54;nan;101239.59;4958958;28;97368;-73
2021/01/14 08:40:28;;;;;;;6.32;5.72;;;;;;;9.57;nan;101245.94;4976517;28;99201;-72
2021/01/14 08:43:02;;;;;;;10.50;5.75;;;;;;;9.60;nan;101256.59;4976404;28;99601;-71
2021/01/14 08:45:34;;;;;;;7.03;6.32;;;;;;;9.64;nan;101253.38;4975651;28;97484;-71
2021/01/14 08:48:10;;;;;;;8.68;5.68;;;;;;;9.68;nan;101260.63;4975802;28;97040;-72
2021/01/14 08:50:49;;;;;;;8.63;6.72;;;;;;;9.79;nan;101264.84;4955804;28;98263;-72
2021/01/14 08:53:24;;;;;;;6.60;5.75;;;;;;;9.82;nan;101265.03;4974307;28;98884;-73
2021/01/14 08:55:54;;;;;;;8.23;5.85;;;;;;;9.85;nan;101265.22;4974796;28;97206;-73
2021/01/14 08:58:35;;;;;;;6.25;5.65;;;;;;;9.90;nan;101273.41;4974708;28;97918;-74
2021/01/14 09:01:04;;;;;;;6.20;5.60;;;;;;;9.88;nan;101277.63;4972875;28;97917;-75
2021/01/14 09:03:33;;;;;;;9.68;5.93;;;;;;;9.91;nan;101280.44;4973343;28;96904;-75
2021/01/14 09:06:02;;;;;;;6.60;5.93;;;;;;;9.90;nan;101290.06;4975694;28;98165;-74
2021/01/14 09:08:29;;;;;;;9.35;5.90;;;;;;;9.90;nan;101294.41;4956203;28;97596;-72
2021/01/14 09:10:59;;;;;;;7.35;5.97;;;;;;;9.91;nan;101304.97;4975173;28;98424;-74
2021/01/14 09:13:46;;;;;;;7.95;5.97;;;;;;;9.93;nan;101306.00;4956990;28;97275;-73
2021/01/14 09:16:14;;;;;;;7.60;6.80;;;;;;;9.93;nan;101312.94;4975464;28;97267;-73
2021/01/14 09:18:42;;;;;;;10.93;6.38;;;;;;;9.85;nan;101317.69;4974184;28;97552;-72
2021/01/14 09:21:11;;;;;;;10.93;7.22;;;;;;;9.84;nan;101328.09;4973618;28;98368;-73
2021/01/14 09:23:39;;;;;;;7.20;6.40;;;;;;;9.83;nan;101336.81;4974648;28;98046;-73
2021/01/14 09:26:49;;;;;;;9.30;7.15;;;;;;;9.79;nan;101343.56;4974305;28;98124;-73
2021/01/14 09:29:18;;;;;;;9.77;7.45;;;;;;;9.87;nan;101331.81;4958859;28;97560;-72
2021/01/14 09:31:46;;;;;;;12.30;8.70;;;;;;;9.98;nan;101338.69;4973870;28;99504;-71
2021/01/14 09:34:13;;;;;;;13.38;9.50;;;;;;;10.07;nan;101346.25;4974671;28;97710;-73
2021/01/14 09:36:42;;;;;;;9.52;7.30;;;;;;;10.05;nan;101354.00;4956516;28;97955;-73
2021/01/14 09:39:14;;;;;;;10.48;7.07;;;;;;;10.08;nan;101353.31;4969181;28;97309;-73
2021/01/14 09:41:42;;;;;;;8.18;7.07;;;;;;;10.07;nan;101359.38;4972962;28;98097;-75
2021/01/14 09:44:13;;;;;;;10.20;8.52;;;;;;;10.15;nan;101360.78;4973711;28;99765;-73
2021/01/14 09:46:42;;;;;;;12.93;9.20;;;;;;;10.20;nan;101360.28;4955907;28;98746;-72
2021/01/14 09:49:11;;;;;;;9.88;6.80;;;;;;;10.19;nan;101358.47;4974713;28;97053;-72
2021/01/14 09:51:58;;;;;;;8.20;6.60;;;;;;;10.17;nan;101362.72;4975147;28;97685;-72
2021/01/14 09:54:25;;;;;;;9.27;7.47;;;;;;;10.19;nan;101368.06;4974293;28;97928;-72
2021/01/14 09:56:54;;;;;;;13.48;6.88;;;;;;;10.19;nan;101362.81;4975488;28;97575;-73
2021/01/14 09:59:27;;;;;;;11.40;8.80;;;;;;;10.29;nan;101359.06;4940220;28;97803;-74
2021/01/14 10:01:56;;;;;;;11.20;8.07;;;;;;;10.33;nan;101368.94;4975663;28;98291;-72
2021/01/14 10:04:26;;;;;;;11.07;7.75;;;;;;;10.36;nan;101375.31;4974130;28;100651;-72
2021/01/14 10:06:56;;;;;;;9.45;7.35;;;;;;;10.36;nan;101366.50;4976684;28;98042;-73
2021/01/14 10:09:24;;;;;;;11.75;7.25;;;;;;;10.38;nan;101364.88;4975155;28;98083;-73
2021/01/14 10:11:52;;;;;;;10.48;7.90;;;;;;;10.39;nan;101358.81;4974156;28;97434;-73
2021/01/14 10:14:21;;;;;;;9.98;7.93;;;;;;;10.38;nan;101364.88;4956646;28;96858;-75
2021/01/14 10:16:50;;;;;;;8.82;7.45;;;;;;;10.39;nan;101367.59;4972098;28;98274;-73
2021/01/14 10:19:19;;;;;;;8.15;6.78;;;;;;;10.39;nan;101364.06;4973170;28;97450;-73
2021/01/14 10:21:48;;;;;;;10.18;8.20;;;;;;;10.42;nan;101361.66;4973279;28;98375;-73
2021/01/14 10:24:25;;;;;;;11.38;7.93;;;;;;;10.47;nan;101360.22;4974462;28;98279;-72
2021/01/14 10:26:54;;;;;;;9.88;6.93;;;;;;;10.48;nan;101357.66;4956740;28;97091;-74
2021/01/14 10:29:30;;;;;;;8.60;7.70;;;;;;;10.51;nan;101363.09;4958355;28;97720;-72
2021/01/14 10:32:05;;;;;;;14.02;8.63;;;;;;;10.53;nan;101364.13;4973631;28;97356;-73
2021/01/14 10:34:45;;;;;;;9.52;7.78;;;;;;;10.57;nan;101363.50;4963222;28;96912;-72
2021/01/14 10:37:22;;;;;;;10.73;8.13;;;;;;;10.60;nan;101375.94;4975168;28;97549;-74
2021/01/14 10:39:50;;;;;;;11.45;8.10;;;;;;;10.53;nan;101376.38;4978900;28;97356;-72
2021/01/14 10:42:46;;;;;;;10.95;8.10;;;;;;;10.49;nan;101380.50;4965460;28;98201;-73
2021/01/14 10:45:22;;;;;;;10.93;7.60;;;;;;;10.53;nan;101392.13;4962149;28;101982;-74
2021/01/14 10:47:51;;;;;;;10.55;7.82;;;;;;;10.54;nan;101386.97;4978119;28;97641;-72
2021/01/14 10:50:21;;;;;;;9.88;8.68;;;;;;;10.56;nan;101397.56;4974141;28;97254;-73
2021/01/14 10:52:55;;;;;;;13.48;8.50;;;;;;;10.58;nan;101393.31;4973436;28;97347;-71
2021/01/14 10:55:23;;;;;;;10.30;8.00;;;;;;;10.57;nan;101391.47;4979310;28;98195;-73
2021/01/14 10:58:02;;;;;;;9.98;8.10;;;;;;;10.60;nan;101397.84;4978569;28;97348;-74
2021/01/14 11:00:34;;;;;;;11.55;8.23;;;;;;;10.54;nan;101407.06;4979557;28;97327;-73
2021/01/14 11:03:05;;;;;;;13.73;8.07;;;;;;;10.55;nan;101393.09;4957886;28;101269;-72
2021/01/14 11:05:42;;;;;;;13.02;8.18;;;;;;;10.60;nan;101404.81;4961373;28;97842;-73
2021/01/14 11:08:12;;;;;;;10.90;8.55;;;;;;;10.66;nan;101410.44;4957903;28;98059;-72
2021/01/14 11:10:40;;;;;;;12.43;10.48;;;;;;;10.71;nan;101401.16;4971282;28;99133;-71
2021/01/14 11:13:09;;;;;;;12.55;8.77;;;;;;;10.66;nan;101402.56;4968632;28;98181;-71
2021/01/14 11:15:37;;;;;;;14.32;11.18;;;;;;;10.74;nan;101410.13;4968099;28;97941;-72
2021/01/14 11:18:07;;;;;;;15.60;11.03;;;;;;;10.83;nan;101413.34;4963634;28;98042;-74
2021/01/14 11:20:38;;;;;;;14.35;10.90;;;;;;;10.86;nan;101410.88;4968301;28;98055;-73
2021/01/14 11:23:06;;;;;;;10.63;8.90;;;;;;;10.89;nan;101415.44;4977959;28;97908;-72
2021/01/14 11:25:34;;;;;;;10.98;8.43;;;;;;;10.94;nan;101400.84;4957941;28;99007;-72
2021/01/14 11:28:02;;;;;;;10.75;8.30;;;;;;;10.97;nan;101404.56;4968237;28;98106;-73
2021/01/14 11:30:30;;;;;;;13.27;10.00;;;;;;;11.05;nan;101410.28;4972231;28;98124;-71
2021/01/14 11:32:57;;;;;;;12.55;9.15;;;;;;;11.10;nan;101409.75;4976377;28;100382;-72
2021/01/14 11:35:26;;;;;;;12.05;8.45;;;;;;;11.12;nan;101410.75;4977203;28;97936;-71
2021/01/14 11:37:53;;;;;;;12.48;8.60;;;;;;;11.17;nan;101413.66;4957305;28;97806;-73
2021/01/14 11:40:21;;;;;;;9.82;7.55;;;;;;;11.17;nan;101414.56;4976572;28;97334;-72
2021/01/14 11:42:49;;;;;;;10.50;7.90;;;;;;;11.21;nan;101410.41;4977903;28;103620;-73
2021/01/14 11:45:17;;;;;;;14.93;7.95;;;;;;;11.22;nan;101407.88;4958362;28;98036;-72
2021/01/14 11:47:44;;;;;;;9.23;7.00;;;;;;;11.28;nan;101417.84;4975999;28;97657;-72
2021/01/14 11:50:12;;;;;;;10.63;7.75;;;;;;;11.33;nan;101420.78;4975185;28;97880;-72
2021/01/14 11:52:40;;;;;;;10.13;7.70;;;;;;;11.31;nan;101415.41;4974508;28;99410;-72
2021/01/14 11:55:09;;;;;;;10.80;7.60;;;;;;;11.32;nan;101425.13;4957486;28;99289;-72
2021/01/14 11:57:37;;;;;;;8.75;7.40;;;;;;;11.28;nan;101424.84;4958469;28;97208;-72
2021/01/14 12:00:10;;;;;;;12.15;9.48;;;;;;;11.32;nan;101427.75;4969005;28;97721;-72
2021/01/14 12:02:40;;;;;;;9.32;7.18;;;;;;;11.31;nan;101435.53;4975286;28;98496;-72
2021/01/14 12:05:09;;;;;;;9.52;7.80;;;;;;;11.34;nan;101428.75;4964982;28;100829;-72
2021/01/14 12:07:36;;;;;;;9.85;7.15;;;;;;;11.36;nan;101416.59;4965433;28;97827;-72